Time;durP1;ratioP1;P1;durP2;ratioP2;P2;SDS_P1;SDS_P2;PMS_P1;PMS_P2;Temp;Humidity;BMP_temperature;BMP_pressure;BME280_temperature;BME280_humidity;BME280_pressure;Samples;Min_cycle;Max_cycle;Signal;HPM_P1;HPM_P2
2022/09/18 00:01:21;;;;;;;0.10;0.10;;;;;;;14.24;69.28;101723.16;5026528;28;20029;-79
2022/09/18 00:03:48;;;;;;;0.10;0.10;;;;;;;14.26;69.16;101723.16;5023524;28;20040;-79
2022/09/18 00:06:17;;;;;;;0.10;0.10;;;;;;;14.28;69.22;101721.31;5022839;28;20038;-79
2022/09/18 00:08:44;;;;;;;0.10;0.10;;;;;;;14.30;69.59;101732.81;5028283;28;20064;-79
2022/09/18 00:11:13;;;;;;;0.20;0.20;;;;;;;14.31;69.40;101724.78;5026536;28;20057;-79
2022/09/18 00:13:40;;;;;;;0.10;0.10;;;;;;;14.30;69.84;101722.16;5028243;28;20149;-79
2022/09/18 00:16:09;;;;;;;0.10;0.10;;;;;;;14.24;70.16;101726.72;5019308;28;20083;-79
2022/09/18 00:18:35;;;;;;;0.10;0.10;;;;;;;14.31;69.40;101730.13;5022021;28;20025;-79
2022/09/18 00:21:05;;;;;;;0.00;0.00;;;;;;;14.33;69.91;101730.09;5023206;28;20121;-79
2022/09/18 00:23:32;;;;;;;0.10;0.10;;;;;;;14.37;69.72;101727.31;5019906;28;20026;-79
2022/09/18 00:25:58;;;;;;;0.00;0.00;;;;;;;14.42;69.54;101729.00;5016008;28;20401;-79
2022/09/18 00:28:24;;;;;;;0.00;0.00;;;;;;;14.48;69.29;101736.88;5019655;28;20036;-79
2022/09/18 00:30:50;;;;;;;0.10;0.10;;;;;;;14.49;69.44;101731.53;5018714;28;20049;-79
2022/09/18 00:33:16;;;;;;;0.93;0.93;;;;;;;14.52;69.39;101731.44;5016641;28;20396;-79
2022/09/18 00:35:43;;;;;;;0.10;0.10;;;;;;;14.52;69.74;101731.44;5015027;28;20086;-78
2022/09/18 00:38:10;;;;;;;0.10;0.10;;;;;;;14.46;69.62;101725.38;5018975;28;20034;-78
2022/09/18 00:40:37;;;;;;;0.10;0.10;;;;;;;14.45;69.91;101724.47;5017086;28;20049;-78
2022/09/18 00:43:22;;;;;;;0.00;0.00;;;;;;;14.53;69.86;101719.00;5019617;28;20147;-78
2022/09/18 00:46:14;;;;;;;0.10;0.10;;;;;;;14.50;69.55;101721.72;5025160;28;20029;-78
2022/09/18 00:48:48;;;;;;;0.10;0.10;;;;;;;14.46;69.80;101723.56;5020268;28;20030;-79
2022/09/18 00:51:16;;;;;;;0.10;0.10;;;;;;;14.42;69.53;101719.22;5021002;28;20037;-79
2022/09/18 00:53:54;;;;;;;0.10;0.10;;;;;;;14.45;69.74;101712.94;5023129;28;20029;-79
2022/09/18 00:56:21;;;;;;;0.10;0.10;;;;;;;14.35;69.58;101709.59;5017805;28;20036;-79
2022/09/18 00:58:47;;;;;;;0.10;0.10;;;;;;;14.35;69.61;101717.59;5023626;28;20091;-79
2022/09/18 01:01:13;;;;;;;0.10;0.10;;;;;;;14.37;69.39;101726.47;5018418;28;20021;-79
2022/09/18 01:03:39;;;;;;;0.10;0.10;;;;;;;14.35;69.48;101733.59;5016482;28;20445;-79
2022/09/18 01:06:15;;;;;;;0.00;0.00;;;;;;;14.41;69.36;101728.13;5017124;28;20101;-79
2022/09/18 01:12:01;;;;;;;0.10;0.10;;;;;;;14.31;69.33;101735.44;5062111;28;20383;-79
2022/09/18 01:14:35;;;;;;;0.10;0.10;;;;;;;14.31;69.20;101732.78;5050906;28;20160;-79
2022/09/18 01:17:41;;;;;;;0.10;0.10;;;;;;;14.38;68.88;101722.84;5051227;28;20025;-79
2022/09/18 01:31:32;;;;;;;0.10;0.10;;;;;;;14.22;69.38;101701.88;5098082;27;20413;-79
2022/09/18 01:34:04;;;;;;;0.10;0.10;;;;;;;14.22;69.49;101706.34;5094759;28;20050;-78
2022/09/18 01:36:35;;;;;;;0.10;0.10;;;;;;;14.21;69.37;101705.44;5099783;28;20557;-78
2022/09/18 01:39:11;;;;;;;0.10;0.10;;;;;;;14.26;69.18;101693.84;5099025;28;20031;-79
2022/09/18 01:41:40;;;;;;;0.00;0.00;;;;;;;14.21;69.57;101689.44;5099529;28;20039;-79
2022/09/18 01:44:16;;;;;;;0.10;0.10;;;;;;;14.28;69.28;101702.66;5094432;28;20031;-79
2022/09/18 01:46:44;;;;;;;0.05;0.05;;;;;;;14.23;69.69;101703.63;5095971;28;20111;-79
2022/09/18 01:49:15;;;;;;;0.10;0.10;;;;;;;14.27;69.79;101700.88;5092380;28;20054;-79
2022/09/18 01:54:27;;;;;;;0.10;0.10;;;;;;;14.33;69.39;101700.75;5067036;28;20377;-78
2022/09/18 01:57:01;;;;;;;0.10;0.10;;;;;;;14.35;69.09;101701.63;5063070;28;20097;-78
2022/09/18 01:59:34;;;;;;;0.10;0.10;;;;;;;14.33;69.15;101699.00;5064148;28;20033;-78
2022/09/18 02:02:02;;;;;;;0.08;0.08;;;;;;;14.31;69.19;101694.59;5044691;28;20067;-78
2022/09/18 02:04:35;;;;;;;0.10;0.10;;;;;;;14.33;69.19;101692.75;5043506;28;20507;-79
2022/09/18 02:09:45;;;;;;;0.10;0.10;;;;;;;14.32;69.45;101696.38;5046413;27;20416;-79
2022/09/18 02:12:19;;;;;;;0.10;0.10;;;;;;;14.36;69.18;101690.91;5034496;28;20029;-78
2022/09/18 02:14:49;;;;;;;0.03;0.03;;;;;;;14.28;69.25;101687.56;5032249;28;20559;-78
2022/09/18 02:17:20;;;;;;;0.00;0.00;;;;;;;14.30;68.75;101687.50;5029423;28;20087;-79
2022/09/18 02:20:02;;;;;;;0.20;0.20;;;;;;;14.46;68.21;101680.91;5029820;28;20136;-79
2022/09/18 02:22:33;;;;;;;0.10;0.10;;;;;;;14.42;68.48;101675.69;5029200;28;20051;-79
2022/09/18 02:25:03;;;;;;;0.10;0.10;;;;;;;14.36;68.28;101682.91;5031387;28;20029;-79
2022/09/18 02:27:32;;;;;;;0.25;0.25;;;;;;;14.35;68.21;101685.63;5028855;28;20394;-79
2022/09/18 02:30:02;;;;;;;0.10;0.10;;;;;;;14.33;67.98;101680.31;5030467;28;20481;-79
2022/09/18 02:32:28;;;;;;;0.10;0.10;;;;;;;14.33;68.08;101684.75;5028157;28;20080;-79
2022/09/18 02:34:54;;;;;;;0.10;0.10;;;;;;;14.30;68.14;101688.38;5032542;28;20504;-79
2022/09/18 02:37:36;;;;;;;0.10;0.10;;;;;;;14.40;67.85;101681.06;5030685;28;20131;-78
2022/09/18 02:40:28;;;;;;;0.15;0.15;;;;;;;14.38;68.28;101680.19;5029935;28;20033;-79
2022/09/18 02:43:24;;;;;;;0.10;0.10;;;;;;;14.46;68.00;101701.38;5031912;28;20068;-79
2022/09/18 02:46:04;;;;;;;0.05;0.05;;;;;;;14.42;68.21;101684.56;5030491;28;20093;-79
2022/09/18 02:51:53;;;;;;;0.10;0.10;;;;;;;14.55;67.91;101677.16;5063793;28;20389;-78
2022/09/18 02:54:42;;;;;;;0.35;0.35;;;;;;;14.44;68.16;101676.53;5039725;28;20037;-78
2022/09/18 02:57:15;;;;;;;0.00;0.00;;;;;;;14.46;68.17;101672.91;5044217;28;20033;-79
2022/09/18 02:59:44;;;;;;;;;;;;;;;14.60;67.72;101679.72;5034192;28;20504;-78
2022/09/18 03:02:10;;;;;;;0.00;0.00;;;;;;;14.39;67.76;101681.97;5049732;28;19983;-78
2022/09/18 03:04:37;;;;;;;0.08;0.08;;;;;;;14.44;67.81;101680.06;5040138;28;20047;-78
2022/09/18 03:07:03;;;;;;;0.00;0.00;;;;;;;14.41;67.63;101672.16;5049777;28;20025;-79
2022/09/18 03:09:31;;;;;;;0.10;0.10;;;;;;;14.35;67.49;101683.81;5046724;28;20035;-79
2022/09/18 03:11:57;;;;;;;0.10;0.10;;;;;;;14.40;67.28;101668.63;5046044;28;20108;-78
2022/09/18 03:14:23;;;;;;;0.00;0.00;;;;;;;14.44;67.47;101663.19;5050491;28;20037;-79
2022/09/18 03:16:50;;;;;;;0.00;0.00;;;;;;;14.36;67.53;101656.25;5046894;28;20025;-78
2022/09/18 03:19:16;;;;;;;0.10;0.10;;;;;;;14.37;67.51;101652.69;5041638;28;20310;-78
2022/09/18 03:21:42;;;;;;;0.10;0.10;;;;;;;14.37;67.58;101654.47;5041973;28;20029;-78
2022/09/18 03:24:08;;;;;;;0.10;0.10;;;;;;;14.37;67.90;101657.16;5044398;28;20389;-78
2022/09/18 03:26:35;;;;;;;0.10;0.10;;;;;;;14.40;67.75;101670.38;5050316;28;20083;-78
2022/09/18 03:29:01;;;;;;;0.00;0.00;;;;;;;14.41;67.97;101661.47;5048903;28;20036;-78
2022/09/18 03:31:28;;;;;;;0.10;0.10;;;;;;;14.29;68.39;101683.94;5044045;28;20033;-78
2022/09/18 03:33:54;;;;;;;0.10;0.10;;;;;;;14.26;68.51;101665.38;5036908;28;20093;-78
2022/09/18 03:36:20;;;;;;;0.00;0.00;;;;;;;14.27;68.86;101661.81;5039618;28;21179;-78
2022/09/18 03:38:46;;;;;;;0.10;0.10;;;;;;;14.24;69.00;101673.41;5039687;28;20502;-78
2022/09/18 03:41:12;;;;;;;0.10;0.10;;;;;;;14.26;68.87;101659.19;5046521;28;20040;-78
2022/09/18 03:43:38;;;;;;;0.00;0.00;;;;;;;14.20;68.71;101645.06;5039776;28;20029;-78
2022/09/18 03:46:04;;;;;;;0.00;0.00;;;;;;;14.19;68.98;101653.09;5051199;28;20029;-79
2022/09/18 03:48:30;;;;;;;0.03;0.03;;;;;;;14.15;68.78;101652.28;5041220;28;20052;-79
2022/09/18 03:50:56;;;;;;;0.55;0.55;;;;;;;14.19;68.47;101653.97;5042757;28;20559;-78
2022/09/18 03:53:23;;;;;;;0.60;0.60;;;;;;;14.21;68.80;101661.94;5039851;28;20029;-78
2022/09/18 03:55:49;;;;;;;0.40;0.40;;;;;;;14.22;68.47;101663.69;5040551;28;20029;-79
2022/09/18 03:58:16;;;;;;;0.10;0.10;;;;;;;14.12;68.38;101668.34;5050863;28;20041;-79
2022/09/18 04:00:42;;;;;;;0.10;0.10;;;;;;;14.16;68.64;101674.50;5042198;28;20025;-79
2022/09/18 04:03:08;;;;;;;0.10;0.10;;;;;;;14.17;68.94;101671.78;5034490;28;20065;-79
2022/09/18 04:05:34;;;;;;;0.10;0.10;;;;;;;14.10;69.47;101653.31;5033439;28;20068;-78
2022/09/18 04:08:01;;;;;;;0.10;0.10;;;;;;;14.16;69.33;101658.50;5031129;28;20040;-79
2022/09/18 04:10:27;;;;;;;0.10;0.10;;;;;;;14.18;69.09;101665.56;5024129;28;20029;-78
2022/09/18 04:12:53;;;;;;;0.10;0.10;;;;;;;14.12;69.54;101662.13;5035472;28;20053;-79
2022/09/18 04:15:19;;;;;;;0.63;0.63;;;;;;;14.14;69.58;101663.84;5033949;28;20044;-78
2022/09/18 04:17:46;;;;;;;0.10;0.10;;;;;;;14.18;69.65;101656.66;5029430;28;20037;-78
2022/09/18 04:20:12;;;;;;;0.00;0.00;;;;;;;14.19;69.39;101658.41;5031629;28;20026;-79
2022/09/18 04:22:38;;;;;;;0.10;0.10;;;;;;;14.16;69.91;101648.69;5030742;28;20096;-79
2022/09/18 04:25:04;;;;;;;0.10;0.10;;;;;;;14.22;69.04;101648.56;5028849;28;20068;-79
2022/09/18 04:27:30;;;;;;;0.10;0.10;;;;;;;14.24;69.22;101646.75;5034625;28;20125;-79
2022/09/18 04:29:56;;;;;;;0.35;0.35;;;;;;;14.18;69.64;101636.22;5028573;28;20030;-78
2022/09/18 04:32:22;;;;;;;0.10;0.10;;;;;;;14.22;69.43;101645.03;5025867;28;20080;-78
2022/09/18 04:34:49;;;;;;;0.10;0.10;;;;;;;14.22;69.24;101653.91;5034078;28;20056;-79
2022/09/18 04:37:15;;;;;;;0.10;0.10;;;;;;;14.28;69.14;101646.66;5035022;28;20088;-78
2022/09/18 04:39:41;;;;;;;0.10;0.10;;;;;;;14.22;68.91;101650.38;5025466;28;20029;-78
2022/09/18 04:42:07;;;;;;;0.10;0.10;;;;;;;14.31;68.82;101647.47;5031736;28;20095;-78
2022/09/18 04:44:33;;;;;;;0.10;0.10;;;;;;;14.32;68.43;101643.03;5031030;28;20037;-78
2022/09/18 04:46:59;;;;;;;0.00;0.00;;;;;;;14.29;68.08;101643.97;5036222;28;20033;-78
2022/09/18 04:49:25;;;;;;;0.10;0.10;;;;;;;14.37;67.77;101650.00;5029713;28;20109;-78
2022/09/18 04:51:51;;;;;;;0.22;0.22;;;;;;;14.40;67.69;101644.63;5031511;28;20542;-78
2022/09/18 04:54:17;;;;;;;0.10;0.10;;;;;;;14.35;67.70;101640.28;5023523;28;20041;-79
2022/09/18 04:56:43;;;;;;;0.00;0.00;;;;;;;14.38;67.70;101657.09;5031126;28;20026;-78
2022/09/18 04:59:09;;;;;;;0.10;0.10;;;;;;;14.32;67.67;101665.25;5016184;28;20076;-79
2022/09/18 05:01:35;;;;;;;0.10;0.10;;;;;;;14.25;68.26;101668.94;5028240;28;20076;-78
2022/09/18 05:04:01;;;;;;;0.10;0.10;;;;;;;14.20;68.10;101661.03;5023254;28;20037;-79
2022/09/18 05:06:27;;;;;;;0.05;0.05;;;;;;;14.23;68.00;101655.66;5019211;28;20033;-78
2022/09/18 05:08:53;;;;;;;0.10;0.10;;;;;;;14.06;68.56;101657.81;5020479;28;20061;-78
2022/09/18 05:11:20;;;;;;;0.10;0.10;;;;;;;14.08;68.74;101640.88;5015587;28;20052;-78
2022/09/18 05:13:51;;;;;;;0.10;0.10;;;;;;;14.06;68.52;101640.03;5013408;28;20049;-78
2022/09/18 05:16:17;;;;;;;0.00;0.00;;;;;;;14.07;68.62;101632.94;5015666;28;20040;-78
2022/09/18 05:18:43;;;;;;;0.10;0.10;;;;;;;14.08;68.75;101626.66;5019368;28;20022;-78
2022/09/18 05:21:10;;;;;;;0.10;0.10;;;;;;;14.08;68.73;101635.56;5020712;28;20564;-78
2022/09/18 05:23:36;;;;;;;0.00;0.00;;;;;;;14.11;68.69;101633.75;5021695;28;20131;-78
2022/09/18 05:26:03;;;;;;;0.10;0.10;;;;;;;14.16;68.48;101622.06;5018730;28;20495;-78
2022/09/18 05:28:29;;;;;;;0.10;0.10;;;;;;;14.18;68.36;101625.56;5017430;28;20601;-78
2022/09/18 05:30:59;;;;;;;0.10;0.10;;;;;;;14.24;68.52;101630.75;5025821;28;20026;-78
2022/09/18 05:33:25;;;;;;;0.00;0.00;;;;;;;14.24;68.84;101635.19;5023902;28;20441;-78
2022/09/18 05:35:54;;;;;;;0.10;0.10;;;;;;;14.28;68.61;101641.34;5025627;28;20042;-78
2022/09/18 05:38:21;;;;;;;0.08;0.08;;;;;;;14.30;68.65;101643.06;5020759;28;20036;-78
2022/09/18 05:40:48;;;;;;;0.03;0.03;;;;;;;14.29;69.10;101645.75;5023004;28;20029;-78
2022/09/18 05:43:15;;;;;;;0.00;0.00;;;;;;;14.29;69.29;101627.97;5016987;28;20030;-78
2022/09/18 05:45:41;;;;;;;0.00;0.00;;;;;;;14.33;69.07;101623.44;5016304;28;20021;-78
2022/09/18 05:48:09;;;;;;;0.00;0.00;;;;;;;14.27;69.20;101645.81;5021218;28;20484;-78
2022/09/18 05:50:36;;;;;;;0.00;0.00;;;;;;;14.27;69.27;101642.25;5016617;28;20091;-78
2022/09/18 05:53:06;;;;;;;0.10;0.10;;;;;;;14.30;69.17;101636.88;5027141;28;20078;-78
2022/09/18 05:55:33;;;;;;;0.10;0.10;;;;;;;14.28;69.53;101633.34;5020203;28;20041;-78
2022/09/18 05:58:01;;;;;;;0.08;0.08;;;;;;;14.34;69.16;101630.53;5025335;28;20499;-78
2022/09/18 06:00:29;;;;;;;0.08;0.08;;;;;;;14.29;69.85;101622.63;5017661;28;20033;-78
2022/09/18 06:02:59;;;;;;;0.10;0.10;;;;;;;14.34;69.99;101627.88;5025965;28;20052;-78
2022/09/18 06:05:27;;;;;;;0.10;0.10;;;;;;;14.31;70.32;101619.97;5021403;28;20036;-78
2022/09/18 06:07:53;;;;;;;0.10;0.10;;;;;;;14.31;70.41;101625.28;5020665;28;20033;-78
2022/09/18 06:10:21;;;;;;;0.10;0.10;;;;;;;14.30;70.34;101631.53;5018686;28;20055;-78
2022/09/18 06:12:48;;;;;;;0.10;0.10;;;;;;;14.35;70.46;101645.63;5021860;28;20034;-78
2022/09/18 06:15:15;;;;;;;0.10;0.10;;;;;;;14.35;70.49;101638.50;5028264;28;20052;-77
2022/09/18 06:17:42;;;;;;;0.10;0.10;;;;;;;14.36;70.47;101640.25;5021468;28;20026;-78
2022/09/18 06:20:09;;;;;;;0.05;0.05;;;;;;;14.40;70.74;101638.41;5020918;28;20029;-79
2022/09/18 06:22:36;;;;;;;0.10;0.10;;;;;;;14.44;70.91;101625.88;5018833;28;20079;-78
2022/09/18 06:25:03;;;;;;;0.10;0.10;;;;;;;14.48;70.81;101628.44;5019400;28;20026;-78
2022/09/18 06:27:29;;;;;;;0.10;0.10;;;;;;;14.48;71.08;101623.09;5014681;28;20022;-78
2022/09/18 06:29:55;;;;;;;0.10;0.10;;;;;;;14.59;70.38;101613.97;5020764;28;20544;-78
2022/09/18 06:32:21;;;;;;;0.10;0.10;;;;;;;14.66;70.75;101610.28;5026200;28;20045;-78
2022/09/18 06:34:48;;;;;;;0.10;0.10;;;;;;;14.68;71.15;101605.78;5027313;28;20029;-78
2022/09/18 06:37:15;;;;;;;0.10;0.10;;;;;;;14.78;70.68;101603.72;5025553;28;20048;-79
2022/09/18 06:39:41;;;;;;;0.10;0.10;;;;;;;14.83;71.00;101608.06;5025900;28;20112;-78
2022/09/18 06:42:07;;;;;;;0.10;0.10;;;;;;;14.90;70.75;101599.88;5026448;28;20044;-79
2022/09/18 06:44:33;;;;;;;0.10;0.10;;;;;;;14.96;70.81;101600.59;5040280;28;20026;-79
2022/09/18 06:46:59;;;;;;;0.10;0.10;;;;;;;15.02;70.52;101607.56;5015879;28;20067;-78
2022/09/18 06:49:26;;;;;;;0.20;0.20;;;;;;;15.07;70.35;101612.81;5022094;28;20033;-78
2022/09/18 06:51:52;;;;;;;0.10;0.10;;;;;;;15.12;70.00;101624.22;5021824;28;20050;-79
2022/09/18 06:54:18;;;;;;;0.03;0.03;;;;;;;15.10;70.41;101632.25;5027217;28;20061;-79
2022/09/18 06:56:45;;;;;;;0.10;0.10;;;;;;;15.10;70.41;101616.22;5031649;28;20037;-78
2022/09/18 06:59:11;;;;;;;0.10;0.10;;;;;;;15.22;70.10;101619.53;5024607;28;20033;-79
2022/09/18 07:01:37;;;;;;;0.10;0.10;;;;;;;15.24;70.07;101617.66;5025585;28;20496;-79
2022/09/18 07:04:03;;;;;;;0.10;0.10;;;;;;;15.27;69.62;101620.28;5022678;28;20034;-79
2022/09/18 07:06:30;;;;;;;0.10;0.10;;;;;;;15.30;69.43;101620.16;5024879;28;20029;-79
2022/09/18 07:08:56;;;;;;;0.10;0.10;;;;;;;15.37;69.69;101617.28;5016429;28;20022;-78
2022/09/18 07:11:22;;;;;;;0.10;0.10;;;;;;;15.42;69.41;101622.50;5021306;28;20049;-78
2022/09/18 07:13:48;;;;;;;0.10;0.10;;;;;;;15.46;69.40;101620.63;5023673;28;20168;-79
2022/09/18 07:16:15;;;;;;;0.10;0.10;;;;;;;15.49;69.35;101623.22;5016597;28;20034;-78
2022/09/18 07:18:41;;;;;;;0.10;0.10;;;;;;;15.57;69.20;101626.53;5024311;28;20061;-79
2022/09/18 07:21:07;;;;;;;0.10;0.10;;;;;;;15.56;68.74;101624.78;5017102;28;20026;-79
2022/09/18 07:23:34;;;;;;;0.10;0.10;;;;;;;15.59;68.31;101608.69;5018185;28;20124;-79
2022/09/18 07:26:01;;;;;;;0.10;0.10;;;;;;;15.64;68.46;101612.09;5016889;28;20030;-79
2022/09/18 07:28:28;;;;;;;0.10;0.10;;;;;;;15.70;68.36;101616.38;5023849;28;20037;-79
2022/09/18 07:30:54;;;;;;;0.08;0.08;;;;;;;15.75;68.27;101608.22;5018068;28;20443;-79
2022/09/18 07:33:21;;;;;;;0.10;0.10;;;;;;;15.82;67.56;101608.03;5021525;28;20049;-79
2022/09/18 07:35:47;;;;;;;0.10;0.10;;;;;;;15.83;66.90;101614.25;5037387;28;20030;-80
2022/09/18 07:38:13;;;;;;;0.10;0.10;;;;;;;15.87;66.39;101601.69;5043534;28;20037;-79
2022/09/18 07:40:41;;;;;;;0.10;0.10;;;;;;;15.98;66.59;101602.22;5039842;28;20029;-79
2022/09/18 07:43:09;;;;;;;0.10;0.10;;;;;;;16.02;66.14;101614.56;5040485;28;20028;-79
2022/09/18 07:45:36;;;;;;;0.00;0.00;;;;;;;15.99;66.24;101628.03;5040365;28;20064;-78
2022/09/18 07:48:04;;;;;;;0.10;0.10;;;;;;;15.83;65.37;101612.44;5026782;28;20038;-79
2022/09/18 07:50:31;;;;;;;0.10;0.10;;;;;;;15.83;66.25;101616.94;5032098;28;20033;-79
2022/09/18 07:53:01;;;;;;;0.00;0.00;;;;;;;15.74;65.72;101609.13;5035488;28;20488;-79
2022/09/18 07:55:27;;;;;;;0.00;0.00;;;;;;;15.79;65.82;101604.56;5034930;28;20030;-79
2022/09/18 07:57:56;;;;;;;0.10;0.10;;;;;;;15.81;66.43;101614.28;5029767;28;20036;-79
2022/09/18 08:00:22;;;;;;;0.10;0.10;;;;;;;15.78;64.68;101609.00;5026972;28;20069;-79
2022/09/18 08:02:48;;;;;;;0.10;0.10;;;;;;;15.76;64.13;101621.53;5035212;28;20468;-78
2022/09/18 08:05:15;;;;;;;0.10;0.10;;;;;;;15.71;64.29;101618.13;5027930;28;20138;-79
2022/09/18 08:07:41;;;;;;;0.10;0.10;;;;;;;15.67;64.16;101629.81;5047548;28;20060;-79
2022/09/18 08:10:09;;;;;;;0.10;0.10;;;;;;;15.56;63.37;101623.91;5030433;28;20034;-79
2022/09/18 08:12:36;;;;;;;1.48;1.38;;;;;;;15.49;63.83;101628.56;5045709;28;20504;-79
2022/09/18 08:15:02;;;;;;;0.10;0.10;;;;;;;15.41;63.71;101633.22;5044207;28;20511;-79
2022/09/18 08:17:28;;;;;;;0.10;0.10;;;;;;;15.51;64.53;101629.38;5032684;28;20033;-80
2022/09/18 08:19:54;;;;;;;0.13;0.13;;;;;;;15.39;65.64;101622.59;5045648;28;20481;-80
2022/09/18 08:22:20;;;;;;;0.10;0.10;;;;;;;15.46;65.71;101628.63;5045568;28;20055;-79
2022/09/18 08:24:46;;;;;;;0.10;0.10;;;;;;;15.48;66.09;101621.47;5045277;28;20484;-79
2022/09/18 08:27:12;;;;;;;0.00;0.00;;;;;;;15.45;66.74;101619.75;5036520;28;20080;-79
2022/09/18 08:29:39;;;;;;;0.10;0.10;;;;;;;15.56;66.28;101623.91;5045901;28;20492;-79
2022/09/18 08:32:05;;;;;;;0.03;0.03;;;;;;;15.59;66.78;101623.81;5039422;28;20615;-79
2022/09/18 08:34:32;;;;;;;0.10;0.10;;;;;;;15.62;66.55;101623.75;5044933;28;20021;-80
2022/09/18 08:36:58;;;;;;;0.10;0.10;;;;;;;15.66;66.60;101620.94;5042131;28;20025;-79
2022/09/18 08:39:24;;;;;;;0.98;0.82;;;;;;;15.74;66.20;101626.06;5044283;28;20417;-79
2022/09/18 08:42:32;;;;;;;0.10;0.10;;;;;;;15.88;66.45;101614.13;5052761;28;20078;-79
2022/09/18 08:45:05;;;;;;;0.10;0.10;;;;;;;15.79;65.79;101610.78;5039677;28;20387;-79
2022/09/18 08:47:39;;;;;;;0.00;0.00;;;;;;;15.82;65.30;101617.84;5038976;28;20033;-80
2022/09/18 08:50:28;;;;;;;0.00;0.00;;;;;;;15.85;64.39;101620.44;5036953;28;20457;-79
2022/09/18 08:53:09;;;;;;;0.47;0.47;;;;;;;15.87;64.54;101613.25;5022604;28;20484;-80
2022/09/18 08:55:40;;;;;;;0.10;0.10;;;;;;;15.92;64.93;101611.28;5040393;28;20040;-79
2022/09/18 08:58:13;;;;;;;0.10;0.10;;;;;;;15.98;64.66;101605.78;5037176;28;20038;-79
2022/09/18 09:03:55;;;;;;;0.10;0.10;;;;;;;16.17;63.79;101600.75;5058541;28;20795;-80
2022/09/18 09:10:02;;;;;;;0.10;0.10;;;;;;;16.40;63.79;101591.09;5100421;27;20402;-81
2022/09/18 09:12:42;;;;;;;0.10;0.10;;;;;;;16.49;64.00;101587.25;5065418;28;20033;-80
2022/09/18 09:18:16;;;;;;;0.10;0.10;;;;;;;16.64;64.44;101585.88;5061756;28;20096;-80
2022/09/18 09:21:10;;;;;;;0.10;0.10;;;;;;;16.75;64.07;101589.06;5027342;28;20098;-80
2022/09/18 09:24:06;;;;;;;0.10;0.10;;;;;;;16.77;63.51;101595.25;5022226;28;20409;-80
2022/09/18 09:26:34;;;;;;;0.10;0.10;;;;;;;16.75;63.81;101597.09;5027377;28;20030;-79
2022/09/18 09:29:10;;;;;;;0.10;0.10;;;;;;;16.70;63.21;101609.75;5020929;28;20180;-80
2022/09/18 09:31:44;;;;;;;0.10;0.10;;;;;;;16.55;61.64;101628.97;5019133;28;20042;-80
2022/09/18 09:34:24;;;;;;;0.10;0.10;;;;;;;16.23;61.45;101626.41;5016365;28;20030;-80
2022/09/18 09:36:55;;;;;;;0.10;0.10;;;;;;;15.92;63.00;101651.38;5025923;28;20446;-80
2022/09/18 09:39:28;;;;;;;0.05;0.05;;;;;;;15.57;64.41;101641.69;5020016;28;20108;-80
2022/09/18 09:42:20;;;;;;;0.10;0.10;;;;;;;15.48;64.86;101626.81;5020894;28;20038;-78
2022/09/18 09:47:40;;;;;;;0.10;0.10;;;;;;;15.30;66.73;101622.84;5123108;27;1209833;-79
2022/09/18 09:52:45;;;;;;;0.10;0.10;;;;;;;15.40;66.66;101629.66;5094152;27;20133;-81
2022/09/18 10:00:29;;;;;;;0.10;0.10;;;;;;;15.62;67.03;101624.59;5095711;27;20336;-79
2022/09/18 10:10:57;;;;;;;0.00;0.00;;;;;;;16.27;66.80;101616.50;5094263;27;20393;-79
2022/09/18 10:13:45;;;;;;;0.10;0.10;;;;;;;16.28;66.44;101615.56;5087995;28;20455;-79
2022/09/18 10:16:17;;;;;;;0.10;0.10;;;;;;;16.36;66.19;101624.19;5088196;28;20048;-80
2022/09/18 10:18:45;;;;;;;0.10;0.10;;;;;;;16.28;65.84;101642.31;5084888;28;20403;-80
2022/09/18 10:21:15;;;;;;;0.10;0.10;;;;;;;16.16;66.30;101648.91;5080845;28;20081;-79
2022/09/18 10:23:45;;;;;;;0.10;0.10;;;;;;;15.94;66.04;101635.31;5082385;28;20093;-79
2022/09/18 10:26:30;;;;;;;0.10;0.10;;;;;;;15.82;66.35;101632.06;5086827;28;20072;-80
2022/09/18 10:28:56;;;;;;;0.10;0.10;;;;;;;15.64;67.45;101632.59;5081726;28;20086;-80
2022/09/18 10:31:22;;;;;;;0.10;0.10;;;;;;;15.59;68.14;101629.16;5084052;28;20048;-81
2022/09/18 10:33:51;;;;;;;0.10;0.10;;;;;;;15.64;67.62;101637.94;5083300;28;20028;-80
2022/09/18 10:38:53;;;;;;;0.10;0.10;;;;;;;15.73;68.77;101643.00;5068058;28;20361;-79
2022/09/18 10:44:03;;;;;;;0.10;0.10;;;;;;;15.80;68.45;101630.34;5043970;28;20385;-79
2022/09/18 10:46:32;;;;;;;0.10;0.10;;;;;;;15.74;68.43;101633.19;5039460;28;20051;-80
2022/09/18 10:49:15;;;;;;;0.10;0.10;;;;;;;15.83;67.89;101628.47;5042290;28;20033;-80
2022/09/18 10:51:41;;;;;;;0.10;0.10;;;;;;;15.87;68.78;101631.09;5037615;28;20034;-80
2022/09/18 10:54:16;;;;;;;0.10;0.10;;;;;;;15.96;68.43;101625.44;5037456;28;20040;-79
2022/09/18 10:56:43;;;;;;;0.10;0.10;;;;;;;15.94;68.46;101636.19;5035479;28;20039;-80
2022/09/18 11:02:16;;;;;;;0.10;0.10;;;;;;;15.86;68.97;101627.50;5071844;28;20436;-80
2022/09/18 11:04:46;;;;;;;0.10;0.10;;;;;;;16.08;68.19;101622.41;5072717;28;20090;-80
2022/09/18 11:07:16;;;;;;;0.10;0.10;;;;;;;16.01;67.58;101632.41;5072983;28;20596;-80
2022/09/18 11:09:43;;;;;;;0.10;0.10;;;;;;;16.04;67.01;101631.44;5072432;28;20460;-80
2022/09/18 11:12:26;;;;;;;0.10;0.10;;;;;;;16.06;67.29;101632.25;5068715;28;20028;-80
2022/09/18 11:15:02;;;;;;;0.10;0.10;;;;;;;15.96;66.92;101629.00;5066757;28;20053;-80
2022/09/18 11:17:33;;;;;;;0.10;0.10;;;;;;;15.88;67.25;101622.16;5067873;28;20100;-80
2022/09/18 11:20:02;;;;;;;0.10;0.10;;;;;;;15.86;67.37;101616.81;5068509;28;20062;-80
2022/09/18 11:22:36;;;;;;;0.10;0.10;;;;;;;15.92;67.51;101615.78;5072324;28;20091;-80
2022/09/18 11:30:32;;;;;;;0.10;0.10;;;;;;;16.03;68.00;101616.31;5088124;27;20353;-80
2022/09/18 11:35:45;;;;;;;0.10;0.10;;;;;;;16.10;67.92;101623.25;5105859;27;20853;-80
2022/09/18 11:38:15;;;;;;;0.20;0.20;;;;;;;15.99;68.05;101617.34;5087818;28;20036;-80
2022/09/18 11:40:52;;;;;;;0.10;0.10;;;;;;;16.03;68.21;101616.31;5094124;28;20044;-80
2022/09/18 11:43:25;;;;;;;0.10;0.10;;;;;;;16.03;68.51;101619.00;5092709;28;20044;-79
2022/09/18 11:48:46;;;;;;;0.17;0.17;;;;;;;16.02;68.49;101614.56;5112037;27;20415;-79
2022/09/18 11:51:18;;;;;;;0.10;0.10;;;;;;;16.07;68.53;101615.31;5063229;28;20097;-80
2022/09/18 11:53:50;;;;;;;0.10;0.10;;;;;;;16.10;68.19;101617.91;5059269;28;20056;-79
2022/09/18 11:56:20;;;;;;;;;;;;;;;16.18;68.16;101618.50;5068591;28;20039;-80
2022/09/18 12:01:33;;;;;;;0.10;0.10;;;;;;;16.09;68.44;101604.59;5037324;28;20084;-81
2022/09/18 12:04:26;;;;;;;0.10;0.10;;;;;;;16.04;68.13;101606.50;5033945;28;20445;-81
2022/09/18 12:06:57;;;;;;;;;;;;;;;16.20;67.87;101609.56;5016676;28;20125;-82
2022/09/18 12:09:43;;;;;;;0.10;0.10;;;;;;;16.09;67.88;101605.44;5018578;28;20478;-81
2022/09/18 12:12:28;;;;;;;0.10;0.10;;;;;;;16.09;67.91;101607.25;5014217;28;20492;-79
2022/09/18 12:15:04;;;;;;;0.10;0.10;;;;;;;16.11;67.82;101613.41;5017166;28;20116;-79
2022/09/18 12:17:55;;;;;;;0.10;0.10;;;;;;;16.17;68.12;101615.91;5016175;28;20109;-82
2022/09/18 12:23:00;;;;;;;0.35;0.35;;;;;;;16.18;67.40;101613.16;5092491;27;20416;-79
2022/09/18 12:26:02;;;;;;;0.10;0.10;;;;;;;16.24;67.20;101616.59;5088917;28;20028;-80
2022/09/18 12:40:13;;;;;;;0.10;0.10;;;;;;;16.36;66.90;101597.47;5054719;28;20358;-79
2022/09/18 12:43:11;;;;;;;0.10;0.10;;;;;;;16.40;67.31;101598.25;5056009;28;20039;-79
2022/09/18 12:56:48;;;;;;;0.10;0.10;;;;;;;16.46;66.96;101585.56;5099357;27;20380;-80
2022/09/18 12:59:54;;;;;;;0.10;0.10;;;;;;;16.53;66.65;101590.72;5083432;28;20029;-80
2022/09/18 13:02:44;;;;;;;0.10;0.10;;;;;;;16.32;66.85;101638.59;5068254;28;20424;-79
2022/09/18 13:05:19;;;;;;;0.10;0.10;;;;;;;16.16;64.95;101649.78;5070274;28;20021;-79
2022/09/18 13:08:00;;;;;;;0.10;0.10;;;;;;;15.92;64.67;101647.84;5063940;28;20063;-78
2022/09/18 13:10:38;;;;;;;0.20;0.20;;;;;;;15.63;65.67;101636.19;5067464;28;20025;-79
2022/09/18 13:13:33;;;;;;;0.10;0.10;;;;;;;15.53;65.88;101639.09;5068746;28;20020;-79
2022/09/18 13:16:07;;;;;;;0.10;0.10;;;;;;;15.39;66.48;101630.63;5064078;28;20024;-79
2022/09/18 13:21:24;;;;;;;0.10;0.10;;;;;;;15.34;67.56;101629.88;5101009;27;20760;-79
2022/09/18 13:23:52;;;;;;;0.10;0.10;;;;;;;15.37;67.48;101635.97;5087761;28;20109;-79